Time;durP1;ratioP1;P1;durP2;ratioP2;P2;SDS_P1;SDS_P2;PMS_P1;PMS_P2;Temp;Humidity;BMP_temperature;BMP_pressure;BME280_temperature;BME280_humidity;BME280_pressure;Samples;Min_cycle;Max_cycle;Signal;HPM_P1;HPM_P2
2021/03/15 00:01:41;;;;;;;6.72;4.85;;;;;;;1.89;93.12;96656.28;5001449;28;20042;-61
2021/03/15 00:04:06;;;;;;;7.07;4.72;;;;;;;1.85;92.94;96654.50;4983431;28;20125;-60
2021/03/15 00:06:31;;;;;;;7.68;4.95;;;;;;;1.83;93.11;96654.81;5007581;28;20567;-59
2021/03/15 00:08:57;;;;;;;6.22;4.82;;;;;;;1.86;92.90;96661.50;5002494;28;20053;-61
2021/03/15 00:11:22;;;;;;;6.15;4.82;;;;;;;1.85;93.19;96662.59;4986342;28;20149;-60
2021/03/15 00:13:47;;;;;;;6.60;4.68;;;;;;;1.91;92.76;96651.34;5000489;28;20049;-62
2021/03/15 00:16:13;;;;;;;9.40;4.18;;;;;;;1.83;92.82;96656.72;4981037;28;20061;-62
2021/03/15 00:18:38;;;;;;;5.40;4.03;;;;;;;1.90;92.83;96651.66;4986322;28;20888;-62
2021/03/15 00:21:04;;;;;;;7.25;3.60;;;;;;;1.96;92.83;96650.41;4994049;28;20050;-62
2021/03/15 00:23:29;;;;;;;5.05;3.72;;;;;;;1.91;91.95;96651.34;4986380;28;20097;-61
2021/03/15 00:25:54;;;;;;;8.55;4.68;;;;;;;1.85;92.77;96649.09;4986067;28;20052;-62
2021/03/15 00:28:20;;;;;;;8.10;3.85;;;;;;;1.81;93.18;96653.53;4991096;28;20038;-61
2021/03/15 00:30:45;;;;;;;5.68;3.53;;;;;;;1.79;92.24;96648.44;4970513;28;20042;-61
2021/03/15 00:33:11;;;;;;;6.90;3.88;;;;;;;1.73;93.00;96655.09;4996934;28;20659;-60
2021/03/15 00:35:36;;;;;;;7.45;3.67;;;;;;;1.71;93.24;96658.09;4992609;28;20047;-61
2021/03/15 00:38:02;;;;;;;4.18;3.40;;;;;;;1.76;93.20;96665.25;4998861;28;20049;-63
2021/03/15 00:40:28;;;;;;;5.78;4.03;;;;;;;2.02;92.60;96654.56;5002453;28;20042;-61
2021/03/15 00:42:54;;;;;;;4.18;3.30;;;;;;;1.92;92.13;96654.84;5002640;28;20037;-60
2021/03/15 00:45:22;;;;;;;3.72;3.08;;;;;;;1.98;91.96;96650.09;4994102;28;20062;-59
2021/03/15 00:47:48;;;;;;;4.55;3.10;;;;;;;1.88;92.75;96651.19;4993076;28;20045;-59
2021/03/15 00:50:16;;;;;;;4.40;3.20;;;;;;;1.94;92.43;96643.72;4987129;28;20045;-61
2021/03/15 00:52:41;;;;;;;3.72;3.00;;;;;;;1.87;92.63;96652.28;5005893;28;20683;-61
2021/03/15 00:55:08;;;;;;;5.75;3.25;;;;;;;1.96;92.63;96642.31;4998216;28;20039;-61
2021/03/15 00:57:33;;;;;;;3.67;2.80;;;;;;;1.96;92.08;96645.00;4995008;28;20105;-61
2021/03/15 00:59:58;;;;;;;4.90;2.67;;;;;;;1.87;92.06;96645.00;4968483;28;20038;-60
2021/03/15 01:02:24;;;;;;;4.40;3.00;;;;;;;1.86;92.80;96642.59;4973521;28;20077;-61
2021/03/15 01:04:49;;;;;;;5.57;3.10;;;;;;;1.82;92.20;96644.31;4999903;28;20106;-61
2021/03/15 01:07:14;;;;;;;4.32;2.95;;;;;;;1.75;92.32;96638.56;4996055;28;20052;-61
2021/03/15 01:09:40;;;;;;;5.55;3.10;;;;;;;1.85;92.27;96641.00;4999174;28;20070;-62
2021/03/15 01:12:06;;;;;;;4.32;2.83;;;;;;;1.87;91.95;96638.78;4996185;28;20080;-62
2021/03/15 01:14:32;;;;;;;3.65;2.35;;;;;;;1.86;91.76;96629.09;4982419;28;20042;-61
2021/03/15 01:16:57;;;;;;;3.25;2.70;;;;;;;1.86;92.20;96632.56;4984350;28;20514;-61
2021/03/15 01:19:26;;;;;;;3.22;2.72;;;;;;;1.81;92.32;96637.31;5015654;28;20045;-60
2021/03/15 01:21:53;;;;;;;5.40;2.30;;;;;;;1.76;92.13;96640.16;5002019;28;20042;-60
2021/03/15 01:24:19;;;;;;;2.72;2.15;;;;;;;1.80;91.82;96635.72;4992901;28;20046;-63
2021/03/15 01:26:45;;;;;;;2.78;2.20;;;;;;;1.82;92.20;96628.09;4995210;28;20762;-61
2021/03/15 01:29:11;;;;;;;6.13;3.10;;;;;;;1.90;91.47;96620.03;4985668;28;20050;-62
2021/03/15 01:31:36;;;;;;;3.35;2.70;;;;;;;1.81;91.22;96619.22;4994457;28;20407;-62
2021/03/15 01:34:02;;;;;;;3.65;2.70;;;;;;;1.70;91.72;96615.19;4999094;28;20821;-62
2021/03/15 01:36:27;;;;;;;4.57;2.72;;;;;;;1.69;91.93;96597.41;4993076;28;20114;-61
2021/03/15 01:38:52;;;;;;;2.95;2.65;;;;;;;1.67;92.53;96602.31;4977194;28;20057;-62
2021/03/15 01:41:18;;;;;;;4.13;3.17;;;;;;;1.83;91.98;96611.59;4986710;28;20066;-62
2021/03/15 01:43:45;;;;;;;3.60;2.75;;;;;;;1.98;91.29;96612.28;4983112;28;20042;-61
2021/03/15 01:46:11;;;;;;;6.10;3.28;;;;;;;1.97;91.24;96608.00;4979080;28;20049;-62
2021/03/15 01:48:36;;;;;;;3.50;3.10;;;;;;;1.96;90.60;96601.78;4982474;28;20046;-61
2021/03/15 01:51:02;;;;;;;4.05;3.25;;;;;;;1.96;90.54;96609.88;4981594;28;20039;-61
2021/03/15 01:53:28;;;;;;;3.70;2.90;;;;;;;2.06;90.41;96595.31;4998455;28;20096;-65
2021/03/15 01:55:54;;;;;;;3.45;2.70;;;;;;;1.87;90.54;96590.97;5002646;28;20064;-60
2021/03/15 01:58:19;;;;;;;5.68;2.75;;;;;;;1.76;91.62;96591.56;4973854;28;20093;-61
2021/03/15 02:00:45;;;;;;;5.25;3.35;;;;;;;1.76;92.22;96578.06;4982506;28;20066;-61
2021/03/15 02:03:11;;;;;;;9.25;3.47;;;;;;;1.65;92.46;96574.84;4976106;28;20697;-61
2021/03/15 02:05:39;;;;;;;4.93;3.05;;;;;;;1.68;92.42;96576.91;4982279;28;20397;-61
2021/03/15 02:08:05;;;;;;;5.57;3.80;;;;;;;1.67;92.31;96572.63;4977903;28;20042;-61
2021/03/15 02:10:32;;;;;;;4.35;3.22;;;;;;;1.66;92.66;96576.44;4981476;28;20120;-60
2021/03/15 02:13:13;;;;;;;4.65;3.30;;;;;;;1.65;92.10;96583.72;4981895;28;20134;-60
2021/03/15 02:16:03;;;;;;;4.05;3.33;;;;;;;1.59;92.61;96584.19;4981167;28;20049;-61
2021/03/15 02:18:41;;;;;;;6.53;2.92;;;;;;;1.71;93.11;96578.97;4977559;28;20542;-60
2021/03/15 02:21:15;;;;;;;5.32;3.10;;;;;;;1.64;92.72;96573.22;4977428;28;20089;-60
2021/03/15 02:24:07;;;;;;;6.85;3.42;;;;;;;1.68;92.80;96579.63;4981704;28;20030;-62
2021/03/15 02:27:00;;;;;;;5.50;3.38;;;;;;;1.88;92.20;96570.94;4998669;28;20047;-61
2021/03/15 02:29:47;;;;;;;4.47;3.17;;;;;;;2.02;90.17;96570.03;4969261;28;20042;-59
2021/03/15 02:32:40;;;;;;;4.28;3.15;;;;;;;2.09;89.63;96570.38;4976536;28;20049;-62
2021/03/15 02:35:10;;;;;;;4.55;2.75;;;;;;;2.08;89.57;96574.97;4976595;28;20050;-60
2021/03/15 02:37:47;;;;;;;;;;;;;;;2.09;90.07;96564.97;4964373;28;20046;-62
2021/03/15 02:40:52;;;;;;;4.53;2.63;;;;;;;2.18;89.70;96549.56;4976492;28;20283;-61
2021/03/15 02:43:25;;;;;;;3.92;3.10;;;;;;;2.00;89.07;96534.41;4972865;28;20038;-61
2021/03/15 02:45:57;;;;;;;4.30;2.90;;;;;;;1.90;89.49;96543.63;4981636;28;20061;-61
2021/03/15 02:48:24;;;;;;;4.38;3.10;;;;;;;1.84;90.95;96540.28;4975547;28;20046;-61
2021/03/15 02:50:51;;;;;;;4.82;2.85;;;;;;;1.82;90.68;96539.81;4987156;28;20430;-59
2021/03/15 02:53:18;;;;;;;4.43;2.90;;;;;;;1.85;90.68;96539.16;4994686;28;20053;-57
2021/03/15 02:55:48;;;;;;;6.22;3.20;;;;;;;1.87;90.42;96530.75;4983408;28;20038;-62
2021/03/15 02:58:14;;;;;;;;;;;;;;;1.96;90.72;96533.47;4995303;28;20077;-61
2021/03/15 03:00:41;;;;;;;5.78;3.38;;;;;;;2.02;90.44;96529.53;4999620;28;19914;-61
2021/03/15 03:03:07;;;;;;;9.13;3.38;;;;;;;1.92;90.33;96531.38;4993602;28;20050;-60
2021/03/15 03:05:34;;;;;;;7.32;3.25;;;;;;;1.97;90.71;96529.66;5000617;28;20045;-61
2021/03/15 03:08:00;;;;;;;5.13;3.38;;;;;;;2.08;89.98;96525.53;4995529;28;20041;-62
2021/03/15 03:10:27;;;;;;;6.97;3.72;;;;;;;2.10;90.68;96523.31;4994897;28;20065;-60
2021/03/15 03:12:53;;;;;;;5.25;3.58;;;;;;;2.06;90.40;96523.16;5000201;28;20105;-61
2021/03/15 03:15:27;;;;;;;10.13;4.55;;;;;;;1.97;90.53;96524.25;4990382;28;20037;-61
2021/03/15 03:17:57;;;;;;;9.50;4.18;;;;;;;1.99;90.59;96514.72;4977832;28;20068;-63
2021/03/15 03:20:24;;;;;;;7.60;3.70;;;;;;;2.01;91.05;96515.19;4975834;28;20348;-61
2021/03/15 03:22:52;;;;;;;7.75;3.38;;;;;;;2.05;90.74;96508.06;4981104;28;20081;-59
2021/03/15 03:25:21;;;;;;;4.78;3.78;;;;;;;2.12;90.58;96507.59;4975630;28;20046;-61
2021/03/15 03:27:53;;;;;;;7.97;3.70;;;;;;;2.19;90.43;96499.81;4980707;28;20487;-62
2021/03/15 03:30:22;;;;;;;8.25;3.90;;;;;;;2.12;90.67;96488.66;4976092;28;20069;-62
2021/03/15 03:32:49;;;;;;;5.20;3.92;;;;;;;2.16;89.66;96489.66;4980393;28;20054;-62
2021/03/15 03:35:15;;;;;;;6.90;3.70;;;;;;;2.07;90.20;96481.53;4974103;28;20106;-61
2021/03/15 03:37:41;;;;;;;5.45;3.78;;;;;;;2.10;90.60;96475.47;4980446;28;20136;-61
2021/03/15 03:40:07;;;;;;;6.43;3.53;;;;;;;2.10;90.36;96472.78;4982641;28;20054;-61
2021/03/15 03:42:32;;;;;;;7.85;3.40;;;;;;;2.13;90.82;96465.97;4986816;28;20435;-61
2021/03/15 03:44:58;;;;;;;7.95;4.20;;;;;;;2.08;91.06;96460.72;4986070;28;20038;-61
2021/03/15 03:47:24;;;;;;;7.72;3.70;;;;;;;2.14;90.27;96464.84;4979621;28;20192;-62
2021/03/15 03:49:49;;;;;;;9.02;4.13;;;;;;;2.11;90.54;96465.47;4983073;28;20042;-61
2021/03/15 03:52:21;;;;;;;6.53;4.20;;;;;;;2.26;90.06;96466.91;4978789;28;20380;-61
2021/03/15 03:54:50;;;;;;;5.38;3.55;;;;;;;2.26;89.70;96453.41;5003909;28;20133;-59
2021/03/15 03:57:22;;;;;;;6.40;4.35;;;;;;;2.14;90.12;96454.03;4998892;28;20057;-59
2021/03/15 03:59:51;;;;;;;9.38;4.10;;;;;;;2.10;90.41;96443.06;5004399;28;20072;-61
2021/03/15 04:02:21;;;;;;;6.90;3.72;;;;;;;2.19;90.59;96436.88;4998599;28;20049;-62
2021/03/15 04:04:51;;;;;;;7.65;3.97;;;;;;;2.13;90.94;96432.75;5003935;28;20132;-62
2021/03/15 04:07:25;;;;;;;9.50;3.83;;;;;;;2.22;90.09;96438.94;4998894;28;20108;-60
2021/03/15 04:09:54;;;;;;;11.13;3.83;;;;;;;2.20;89.80;96435.78;5008415;28;20049;-62
2021/03/15 04:12:22;;;;;;;12.23;3.70;;;;;;;2.22;89.95;96438.94;4988259;28;20198;-61
2021/03/15 04:14:54;;;;;;;6.15;3.20;;;;;;;2.36;88.74;96431.47;5003491;28;20049;-62
2021/03/15 04:17:23;;;;;;;7.68;3.42;;;;;;;2.38;88.62;96439.25;4978463;28;20093;-61
2021/03/15 04:19:58;;;;;;;5.68;4.00;;;;;;;2.23;89.33;96427.00;4983914;28;20066;-61
2021/03/15 04:22:27;;;;;;;5.65;3.20;;;;;;;2.34;89.36;96425.59;4976856;28;20279;-61
2021/03/15 04:24:55;;;;;;;7.15;4.60;;;;;;;2.43;88.54;96420.16;4983746;28;20353;-60
2021/03/15 04:27:22;;;;;;;11.73;5.28;;;;;;;2.31;89.39;96420.81;4978862;28;20427;-61
2021/03/15 04:29:48;;;;;;;7.35;3.13;;;;;;;2.27;90.21;96425.28;4983736;28;20121;-60
2021/03/15 04:32:14;;;;;;;9.75;3.72;;;;;;;2.30;89.78;96421.91;4960554;28;20050;-62
2021/03/15 04:34:41;;;;;;;8.15;3.78;;;;;;;2.37;89.63;96419.53;4983249;28;20049;-61
2021/03/15 04:37:09;;;;;;;8.43;3.80;;;;;;;2.32;89.76;96419.69;4978063;28;20546;-60
2021/03/15 04:39:36;;;;;;;5.05;3.47;;;;;;;2.25;90.13;96422.06;4982301;28;20069;-61
2021/03/15 04:42:03;;;;;;;6.80;3.60;;;;;;;2.24;90.57;96409.69;4981402;28;20050;-62
2021/03/15 04:44:29;;;;;;;6.28;3.58;;;;;;;2.32;89.27;96398.06;5005255;28;20046;-62
2021/03/15 04:46:55;;;;;;;10.32;3.80;;;;;;;2.33;89.19;96404.28;4997689;28;20081;-61
2021/03/15 04:49:22;;;;;;;6.32;3.65;;;;;;;2.32;88.31;96395.34;4983569;28;20046;-61
2021/03/15 04:51:48;;;;;;;6.20;3.70;;;;;;;2.29;89.06;96391.41;4986336;28;20158;-61
2021/03/15 04:54:14;;;;;;;8.43;3.70;;;;;;;2.23;89.37;96402.69;4976820;28;20042;-58
2021/03/15 04:56:40;;;;;;;9.90;3.72;;;;;;;2.19;90.01;96405.22;4983609;28;20506;-60
2021/03/15 04:59:09;;;;;;;8.75;4.07;;;;;;;2.16;89.68;96403.19;4984959;28;20057;-59
2021/03/15 05:01:36;;;;;;;6.35;3.30;;;;;;;2.27;88.90;96388.22;4988610;28;20084;-60
2021/03/15 05:04:09;;;;;;;6.43;3.50;;;;;;;2.21;89.17;96388.69;5002150;28;20048;-61
2021/03/15 05:06:36;;;;;;;7.35;3.67;;;;;;;2.23;89.22;96390.00;5019327;28;20483;-62
2021/03/15 05:09:05;;;;;;;8.52;3.80;;;;;;;2.28;89.07;96380.91;5015447;28;20489;-60
2021/03/15 05:11:33;;;;;;;5.47;3.10;;;;;;;2.29;88.43;96382.50;5012596;28;20434;-58
2021/03/15 05:14:04;;;;;;;7.60;3.70;;;;;;;2.23;89.38;96381.88;4991649;28;20085;-60
2021/03/15 05:16:35;;;;;;;7.75;3.17;;;;;;;2.11;89.74;96384.44;4987446;28;20054;-62
2021/03/15 05:19:03;;;;;;;13.35;3.92;;;;;;;2.22;88.96;96380.28;4992572;28;20359;-62
2021/03/15 05:21:30;;;;;;;8.40;3.00;;;;;;;2.32;89.35;96383.75;4990006;28;20050;-61
2021/03/15 05:23:57;;;;;;;8.48;3.30;;;;;;;2.30;88.64;96384.06;4972402;28;20639;-62
2021/03/15 05:26:23;;;;;;;7.78;3.63;;;;;;;2.31;88.49;96379.47;4987592;28;20065;-60
2021/03/15 05:28:49;;;;;;;5.40;3.08;;;;;;;2.23;88.15;96387.28;4991402;28;20084;-60
2021/03/15 05:31:17;;;;;;;8.05;4.10;;;;;;;2.34;88.14;96370.72;4983504;28;20058;-60
2021/03/15 05:33:45;;;;;;;9.60;3.58;;;;;;;2.26;88.44;96375.81;4986160;28;20042;-60
2021/03/15 05:36:14;;;;;;;7.57;3.30;;;;;;;2.26;89.17;96377.72;4968658;28;20185;-61
2021/03/15 05:38:40;;;;;;;6.67;3.50;;;;;;;2.23;88.76;96378.38;4991002;28;20402;-61
2021/03/15 05:41:09;;;;;;;7.28;3.17;;;;;;;2.28;88.86;96373.59;4976168;28;20047;-60
2021/03/15 05:44:12;;;;;;;7.15;3.40;;;;;;;2.21;88.67;96375.19;4991083;28;20446;-60
2021/03/15 05:47:15;;;;;;;8.82;3.05;;;;;;;2.18;89.42;96370.41;4981534;28;20050;-59
2021/03/15 05:49:41;;;;;;;8.65;3.45;;;;;;;2.21;89.27;96367.09;4988340;28;20053;-60
2021/03/15 05:52:07;;;;;;;9.23;3.65;;;;;;;2.15;90.17;96363.75;4985212;28;20042;-59
2021/03/15 05:54:57;;;;;;;6.65;3.03;;;;;;;2.29;89.28;96369.00;4991074;28;20538;-60
2021/03/15 05:58:01;;;;;;;10.80;3.50;;;;;;;2.29;89.96;96366.28;4978369;28;20124;-59
2021/03/15 06:00:54;;;;;;;6.45;3.30;;;;;;;2.24;90.08;96361.84;4973984;28;20113;-61
2021/03/15 06:03:38;;;;;;;6.03;3.55;;;;;;;2.18;89.79;96352.31;4974395;28;20039;-60
2021/03/15 06:06:07;;;;;;;7.85;3.75;;;;;;;2.13;89.96;96354.41;4976650;28;20042;-62
2021/03/15 06:08:40;;;;;;;7.70;3.60;;;;;;;2.20;90.06;96346.59;4989356;28;20503;-62
2021/03/15 06:11:16;;;;;;;5.45;3.03;;;;;;;2.10;90.31;96345.00;4976899;28;20050;-61
2021/03/15 06:13:42;;;;;;;7.85;3.80;;;;;;;2.11;90.79;96333.09;4986473;28;20049;-61
2021/03/15 06:16:09;;;;;;;11.55;5.15;;;;;;;2.12;91.22;96336.59;4987976;28;20068;-61
2021/03/15 06:18:35;;;;;;;4.85;2.63;;;;;;;2.14;91.06;96331.66;5011816;28;20467;-62
2021/03/15 06:21:01;;;;;;;7.50;4.55;;;;;;;2.06;91.33;96331.34;4991933;28;20125;-62
2021/03/15 06:23:29;;;;;;;7.28;3.10;;;;;;;2.10;90.95;96331.50;4980569;28;20042;-61
2021/03/15 06:25:56;;;;;;;2.60;1.48;;;;;;;2.13;90.58;96333.56;4984163;28;20042;-61
2021/03/15 06:28:23;;;;;;;3.67;2.53;;;;;;;2.23;90.91;96333.25;4984798;28;20057;-62
2021/03/15 06:30:50;;;;;;;4.97;3.00;;;;;;;1.99;91.04;96320.22;4990898;28;20132;-62
2021/03/15 06:33:17;;;;;;;2.95;2.17;;;;;;;1.92;91.02;96318.00;4995624;28;20050;-62
2021/03/15 06:35:59;;;;;;;5.03;2.60;;;;;;;1.97;91.64;96327.09;5001180;28;20068;-62
2021/03/15 06:38:27;;;;;;;4.75;2.50;;;;;;;1.94;91.26;96328.50;4996317;28;20512;-61
2021/03/15 06:40:53;;;;;;;4.70;2.85;;;;;;;1.88;91.75;96318.97;4974765;28;20148;-61
2021/03/15 06:43:20;;;;;;;4.10;2.35;;;;;;;2.00;91.31;96329.94;4982644;28;20546;-61
2021/03/15 06:45:48;;;;;;;5.93;2.72;;;;;;;2.00;91.43;96329.94;4992199;28;20168;-60
2021/03/15 06:48:14;;;;;;;5.03;3.10;;;;;;;1.99;90.04;96328.34;4978194;28;20048;-60
2021/03/15 06:50:39;;;;;;;14.02;3.22;;;;;;;1.74;91.36;96327.25;4979492;28;20132;-61
2021/03/15 06:53:06;;;;;;;6.35;3.15;;;;;;;1.83;92.66;96319.16;4974361;28;20082;-61
2021/03/15 06:55:34;;;;;;;3.75;2.53;;;;;;;1.81;91.62;96318.69;4979426;28;20482;-61
2021/03/15 06:58:00;;;;;;;4.05;2.58;;;;;;;1.84;91.56;96315.34;4986313;28;20049;-60
2021/03/15 07:00:28;;;;;;;3.58;2.70;;;;;;;1.80;91.28;96304.38;4976428;28;20050;-60
2021/03/15 07:03:03;;;;;;;6.63;2.50;;;;;;;1.85;91.31;96306.91;4976678;28;20049;-58
2021/03/15 07:05:32;;;;;;;5.13;2.60;;;;;;;1.95;91.65;96319.28;4991233;28;20107;-62
2021/03/15 07:07:59;;;;;;;3.72;2.17;;;;;;;1.91;90.28;96312.94;4989264;28;20038;-62
2021/03/15 07:10:34;;;;;;;7.68;2.88;;;;;;;1.84;91.57;96316.13;4980857;28;20403;-62
2021/03/15 07:13:27;;;;;;;10.77;6.07;;;;;;;1.87;91.45;96323.59;4985865;28;20060;-60
2021/03/15 07:15:55;;;;;;;2.83;2.20;;;;;;;1.81;92.00;96321.38;4982504;28;20049;-63
2021/03/15 07:18:22;;;;;;;3.72;2.53;;;;;;;1.79;91.93;96329.00;4979906;28;20467;-62
2021/03/15 07:20:48;;;;;;;3.80;2.38;;;;;;;1.80;90.67;96325.16;4981042;28;20054;-63
2021/03/15 07:23:14;;;;;;;4.53;2.55;;;;;;;1.77;91.47;96333.94;4982432;28;20053;-61
2021/03/15 07:25:40;;;;;;;4.22;2.20;;;;;;;1.79;91.66;96335.19;4983569;28;20499;-64
2021/03/15 07:28:06;;;;;;;3.83;2.25;;;;;;;1.63;92.18;96337.56;4977929;28;20052;-61
2021/03/15 07:30:43;;;;;;;4.35;2.38;;;;;;;1.49;92.05;96337.72;4989348;28;20541;-63
2021/03/15 07:33:11;;;;;;;6.03;2.45;;;;;;;1.61;92.21;96341.72;4961928;28;20778;-62
2021/03/15 07:35:38;;;;;;;3.10;2.30;;;;;;;1.64;92.11;96341.06;4991559;28;20190;-62
2021/03/15 07:38:04;;;;;;;6.45;1.92;;;;;;;1.50;92.26;96349.31;4982790;28;20042;-63
2021/03/15 07:40:37;;;;;;;3.63;2.30;;;;;;;1.58;93.65;96348.53;4997040;28;20442;-61
2021/03/15 07:43:15;;;;;;;9.50;4.75;;;;;;;1.80;91.77;96352.19;4990047;28;20053;-61
2021/03/15 07:45:44;;;;;;;5.10;2.78;;;;;;;1.83;92.47;96338.84;4983470;28;20089;-65
2021/03/15 07:48:18;;;;;;;2.63;1.73;;;;;;;1.96;92.08;96349.78;4986750;28;20038;-62
2021/03/15 07:51:03;;;;;;;3.25;2.45;;;;;;;1.90;92.06;96347.25;4977605;28;20047;-61
2021/03/15 07:53:36;;;;;;;2.17;1.70;;;;;;;1.96;92.27;96352.50;4956915;28;20122;-61
2021/03/15 07:56:02;;;;;;;1.73;1.52;;;;;;;1.94;92.26;96336.59;4998089;28;20049;-63
2021/03/15 07:58:33;;;;;;;3.25;2.38;;;;;;;2.02;91.20;96338.50;4977788;28;20049;-60
2021/03/15 08:01:00;;;;;;;4.07;1.77;;;;;;;2.02;89.99;96330.41;4985272;28;20050;-61
2021/03/15 08:03:27;;;;;;;1.75;1.50;;;;;;;1.99;91.55;96331.03;4989075;28;20766;-62
2021/03/15 08:05:54;;;;;;;1.85;1.70;;;;;;;2.15;91.71;96325.94;4992325;28;20137;-59
2021/03/15 08:08:20;;;;;;;3.55;1.58;;;;;;;2.13;91.23;96335.50;4990052;28;20042;-59
2021/03/15 08:10:46;;;;;;;2.92;1.52;;;;;;;2.21;91.33;96342.75;4987611;28;20097;-60
2021/03/15 08:13:14;;;;;;;2.70;1.70;;;;;;;2.14;91.57;96342.47;4980932;28;20046;-60
2021/03/15 08:15:44;;;;;;;2.67;2.10;;;;;;;2.18;91.14;96335.28;4982839;28;20074;-62
2021/03/15 08:18:11;;;;;;;4.38;1.98;;;;;;;2.15;91.13;96331.34;4985346;28;20030;-62
2021/03/15 08:20:45;;;;;;;2.40;1.83;;;;;;;2.13;90.32;96324.69;4990515;28;20045;-61
2021/03/15 08:23:13;;;;;;;4.40;1.90;;;;;;;2.35;89.86;96320.97;4978914;28;20038;-61
2021/03/15 08:25:43;;;;;;;8.48;3.55;;;;;;;2.42;89.15;96315.84;4995186;28;20157;-62
2021/03/15 08:28:10;;;;;;;2.65;1.90;;;;;;;2.39;89.76;96321.91;4981428;28;20489;-62
2021/03/15 08:30:37;;;;;;;2.30;1.70;;;;;;;2.46;89.75;96316.78;4989828;28;20084;-60
2021/03/15 08:33:04;;;;;;;1.85;1.67;;;;;;;2.48;88.91;96311.84;4985171;28;20050;-62
2021/03/15 08:35:30;;;;;;;1.88;1.50;;;;;;;2.35;88.51;96316.34;4997692;28;20224;-60
2021/03/15 08:37:58;;;;;;;1.90;1.55;;;;;;;2.49;88.25;96313.44;4991083;28;20476;-61
2021/03/15 08:43:22;;;;;;;1.55;1.45;;;;;;;2.52;87.51;96318.22;4977554;28;20058;-62
2021/03/15 08:45:48;;;;;;;1.38;1.27;;;;;;;2.61;87.26;96321.69;4984354;28;20046;-60
2021/03/15 08:48:14;;;;;;;1.35;1.13;;;;;;;2.61;88.48;96321.69;4988254;28;20038;-61
2021/03/15 08:50:50;;;;;;;3.50;1.63;;;;;;;2.63;87.73;96324.06;4985702;28;20129;-60
2021/03/15 08:53:49;;;;;;;1.60;1.30;;;;;;;2.70;88.65;96318.13;4988444;28;20038;-62
2021/03/15 08:56:18;;;;;;;1.80;1.47;;;;;;;2.81;87.65;96313.94;4972988;28;20054;-61
2021/03/15 08:58:53;;;;;;;0.95;0.95;;;;;;;3.06;87.33;96312.22;4993231;28;20797;-61
2021/03/15 09:01:26;;;;;;;1.13;1.02;;;;;;;3.09;86.21;96295.34;4986447;28;20506;-60
2021/03/15 09:04:04;;;;;;;1.35;1.00;;;;;;;3.23;86.82;96300.50;4983128;28;20126;-63
2021/03/15 09:06:38;;;;;;;0.80;0.80;;;;;;;3.11;85.62;96286.91;4986910;28;20070;-62
2021/03/15 09:09:05;;;;;;;0.80;0.80;;;;;;;3.25;85.67;96295.56;4985061;28;20086;-62
2021/03/15 09:11:33;;;;;;;2.78;1.30;;;;;;;3.39;84.36;96273.66;4981255;28;20050;-60
2021/03/15 09:14:17;;;;;;;1.60;0.90;;;;;;;3.30;84.55;96279.13;4991440;28;20042;-60
2021/03/15 09:16:52;;;;;;;2.05;1.00;;;;;;;3.16;84.60;96290.19;4991795;28;20448;-62
2021/03/15 09:19:22;;;;;;;1.13;1.02;;;;;;;3.14;85.26;96286.25;4992209;28;20061;-61
2021/03/15 09:22:01;;;;;;;1.23;1.10;;;;;;;3.04;85.45;96295.50;4985634;28;20042;-59
2021/03/15 09:24:45;;;;;;;0.80;0.80;;;;;;;3.04;86.02;96292.81;4982126;28;20038;-61
2021/03/15 09:27:20;;;;;;;1.00;0.90;;;;;;;3.04;84.58;96279.28;4983050;28;20505;-60
2021/03/15 09:29:52;;;;;;;0.88;0.82;;;;;;;3.00;85.27;96295.38;4999496;28;20046;-61
2021/03/15 09:32:18;;;;;;;1.85;0.80;;;;;;;3.01;84.92;96283.44;4997250;28;20132;-61
2021/03/15 09:34:43;;;;;;;0.85;0.80;;;;;;;3.08;85.51;96295.66;5003223;28;20165;-61
2021/03/15 09:37:10;;;;;;;1.08;1.00;;;;;;;3.18;85.62;96277.13;4990067;28;20104;-61
2021/03/15 09:39:36;;;;;;;1.20;1.10;;;;;;;3.29;85.50;96288.34;4996134;28;20038;-59
2021/03/15 09:42:02;;;;;;;1.13;1.00;;;;;;;3.40;86.05;96289.56;5001200;28;20049;-62
2021/03/15 09:44:30;;;;;;;0.90;0.90;;;;;;;3.19;86.05;96284.13;4982056;28;20082;-61
2021/03/15 09:46:56;;;;;;;0.90;0.90;;;;;;;3.27;85.08;96304.13;4991387;28;20137;-61
2021/03/15 09:49:44;;;;;;;1.45;1.00;;;;;;;3.58;85.72;96301.06;4984892;28;20928;-62
2021/03/15 09:52:14;;;;;;;1.02;0.90;;;;;;;3.44;85.21;96305.94;4976406;28;20185;-61
2021/03/15 09:54:40;;;;;;;;;;;;;;;3.11;86.59;96295.00;4979784;28;20081;-61
2021/03/15 09:57:06;;;;;;;2.65;1.08;;;;;;;3.22;86.87;96304.31;4975678;28;19917;-60
2021/03/15 09:59:31;;;;;;;1.20;1.00;;;;;;;2.97;86.67;96301.47;4989770;28;20802;-61
2021/03/15 10:01:56;;;;;;;2.15;1.15;;;;;;;2.85;89.13;96309.47;4983790;28;20384;-59
2021/03/15 10:04:22;;;;;;;2.15;1.30;;;;;;;2.76;89.15;96312.22;4981642;28;20423;-61
2021/03/15 10:06:47;;;;;;;1.30;1.20;;;;;;;2.75;89.22;96299.03;4978818;28;20045;-62
2021/03/15 10:09:13;;;;;;;2.97;1.02;;;;;;;2.63;90.79;96302.44;4987025;28;20111;-60
2021/03/15 10:11:44;;;;;;;2.50;1.00;;;;;;;2.87;89.09;96309.94;4973523;28;20385;-60
2021/03/15 10:14:10;;;;;;;1.48;1.00;;;;;;;3.03;89.26;96308.25;4985161;28;20045;-61
2021/03/15 10:16:35;;;;;;;1.20;1.10;;;;;;;3.06;88.50;96309.50;4982327;28;20054;-61
2021/03/15 10:19:01;;;;;;;1.08;1.00;;;;;;;3.06;88.38;96315.72;4990090;28;20042;-62
2021/03/15 10:21:27;;;;;;;1.17;1.08;;;;;;;3.00;88.03;96314.31;4976659;28;20446;-61
2021/03/15 10:23:52;;;;;;;0.80;0.80;;;;;;;2.94;88.74;96321.03;4978209;28;20050;-62
2021/03/15 10:26:18;;;;;;;1.00;1.00;;;;;;;2.88;88.29;96311.50;4987908;28;20046;-60
2021/03/15 10:28:48;;;;;;;1.15;1.05;;;;;;;2.87;88.06;96313.44;5000835;28;20045;-61
2021/03/15 10:31:13;;;;;;;1.07;1.00;;;;;;;3.01;88.42;96323.25;4995584;28;20053;-61
2021/03/15 10:33:45;;;;;;;1.27;1.10;;;;;;;3.10;88.59;96318.56;4983138;28;20042;-61
2021/03/15 10:36:15;;;;;;;1.52;1.27;;;;;;;2.97;88.56;96312.28;5004597;28;20050;-63
2021/03/15 10:38:41;;;;;;;2.05;1.25;;;;;;;3.13;88.49;96315.19;5004409;28;20052;-63
2021/03/15 10:41:06;;;;;;;1.30;1.17;;;;;;;3.19;88.37;96313.91;4983309;28;20042;-62
2021/03/15 10:43:32;;;;;;;3.15;1.60;;;;;;;3.38;88.31;96318.84;4981135;28;20858;-62
2021/03/15 10:46:28;;;;;;;1.30;1.10;;;;;;;3.24;87.74;96319.13;4980885;28;20045;-61
2021/03/15 10:48:54;;;;;;;1.20;1.10;;;;;;;3.31;87.46;96318.59;4976195;28;20042;-60
2021/03/15 10:51:19;;;;;;;2.65;1.60;;;;;;;3.33;86.16;96320.97;4992490;28;20092;-61
2021/03/15 10:53:47;;;;;;;1.52;1.20;;;;;;;3.53;86.53;96317.50;5001126;28;20069;-63
2021/03/15 10:56:30;;;;;;;2.35;1.65;;;;;;;3.30;86.53;96319.72;4978709;28;20405;-61
2021/03/15 10:58:56;;;;;;;3.67;1.33;;;;;;;3.34;87.45;96315.22;4982028;28;20038;-61
2021/03/15 11:01:24;;;;;;;1.83;1.30;;;;;;;3.33;86.98;96313.66;4978071;28;20134;-62
2021/03/15 11:03:49;;;;;;;1.60;1.33;;;;;;;3.31;86.78;96318.59;4987519;28;20534;-61
2021/03/15 11:06:19;;;;;;;1.17;1.08;;;;;;;3.40;86.96;96313.94;4981430;28;20050;-61
2021/03/15 11:08:58;;;;;;;1.67;1.05;;;;;;;3.52;86.96;96310.50;4979864;28;20129;-57
2021/03/15 11:11:31;;;;;;;1.38;1.27;;;;;;;3.92;85.88;96306.50;4975738;28;20082;-61
2021/03/15 11:14:00;;;;;;;1.30;1.20;;;;;;;4.13;85.88;96307.25;4980293;28;20065;-61
2021/03/15 11:16:28;;;;;;;1.13;0.90;;;;;;;4.46;83.77;96292.88;4975397;28;20050;-61
2021/03/15 11:19:05;;;;;;;1.00;0.90;;;;;;;4.38;83.79;96299.97;4987245;28;20049;-62
2021/03/15 11:21:39;;;;;;;1.00;0.93;;;;;;;4.53;82.56;96290.38;4985055;28;20065;-62
2021/03/15 11:24:06;;;;;;;1.17;1.08;;;;;;;4.62;82.93;96305.78;4978002;28;20089;-62
2021/03/15 11:26:54;;;;;;;1.40;1.20;;;;;;;4.68;83.08;96297.09;4982966;28;20133;-62
2021/03/15 11:29:36;;;;;;;1.20;1.02;;;;;;;4.63;82.85;96302.75;4981203;28;20109;-62
2021/03/15 11:32:08;;;;;;;1.75;0.90;;;;;;;4.61;82.53;96313.13;4978531;28;20423;-61
2021/03/15 11:34:33;;;;;;;1.10;0.98;;;;;;;4.64;83.77;96300.81;4962147;28;20045;-62
2021/03/15 11:37:05;;;;;;;1.73;1.20;;;;;;;4.79;82.86;96300.94;4982165;28;20379;-61
2021/03/15 11:39:30;;;;;;;2.80;1.10;;;;;;;4.93;82.55;96300.59;4988574;28;20081;-62
2021/03/15 11:41:55;;;;;;;1.70;1.27;;;;;;;4.92;80.52;96304.44;4984308;28;20468;-60
2021/03/15 11:44:21;;;;;;;1.90;1.10;;;;;;;4.49;82.99;96308.47;4984497;28;20046;-61
2021/03/15 11:46:46;;;;;;;1.67;1.27;;;;;;;4.67;83.17;96302.84;4991011;28;20049;-61
2021/03/15 11:49:12;;;;;;;1.92;1.00;;;;;;;4.75;82.11;96308.19;4986908;28;20065;-62
2021/03/15 11:51:37;;;;;;;2.53;1.38;;;;;;;4.64;82.74;96292.66;5000129;28;20057;-61
2021/03/15 11:54:03;;;;;;;1.17;1.08;;;;;;;4.66;82.49;96291.19;4995875;28;20546;-61
2021/03/15 11:56:29;;;;;;;1.65;1.40;;;;;;;4.73;82.49;96299.56;4991564;28;20874;-60